sensor_id;sensor_type;location;lat;lon;timestamp;P1;durP1;ratioP1;P2;durP2;ratioP2
3563;SDS011;1796;52.388;13.096;2022-11-20T00:01:11;12.03;;;8.47;;
3563;SDS011;1796;52.388;13.096;2022-11-20T00:03:39;10.73;;;7.93;;
3563;SDS011;1796;52.388;13.096;2022-11-20T00:06:08;15.30;;;8.57;;
3563;SDS011;1796;52.388;13.096;2022-11-20T00:08:36;13.13;;;9.23;;
3563;SDS011;1796;52.388;13.096;2022-11-20T00:11:04;12.40;;;8.27;;
3563;SDS011;1796;52.388;13.096;2022-11-20T00:13:31;10.07;;;7.37;;
3563;SDS011;1796;52.388;13.096;2022-11-20T00:15:58;10.20;;;8.10;;
3563;SDS011;1796;52.388;13.096;2022-11-20T00:18:26;10.43;;;7.37;;
3563;SDS011;1796;52.388;13.096;2022-11-20T00:20:53;11.37;;;7.90;;
3563;SDS011;1796;52.388;13.096;2022-11-20T00:23:28;12.07;;;8.07;;
3563;SDS011;1796;52.388;13.096;2022-11-20T00:25:55;11.40;;;8.10;;
3563;SDS011;1796;52.388;13.096;2022-11-20T00:28:22;9.53;;;7.20;;
3563;SDS011;1796;52.388;13.096;2022-11-20T00:30:49;8.90;;;7.10;;
3563;SDS011;1796;52.388;13.096;2022-11-20T00:33:16;12.30;;;7.90;;
3563;SDS011;1796;52.388;13.096;2022-11-20T00:35:43;16.17;;;8.57;;
3563;SDS011;1796;52.388;13.096;2022-11-20T00:38:10;12.53;;;8.20;;
3563;SDS011;1796;52.388;13.096;2022-11-20T00:40:38;12.90;;;7.87;;
3563;SDS011;1796;52.388;13.096;2022-11-20T00:43:05;12.47;;;7.90;;
3563;SDS011;1796;52.388;13.096;2022-11-20T00:45:32;13.20;;;8.50;;
3563;SDS011;1796;52.388;13.096;2022-11-20T00:47:58;16.33;;;9.40;;
3563;SDS011;1796;52.388;13.096;2022-11-20T00:50:25;15.07;;;8.57;;
3563;SDS011;1796;52.388;13.096;2022-11-20T00:52:52;14.20;;;8.27;;
3563;SDS011;1796;52.388;13.096;2022-11-20T00:55:19;14.93;;;8.93;;
3563;SDS011;1796;52.388;13.096;2022-11-20T00:57:47;10.80;;;7.97;;
3563;SDS011;1796;52.388;13.096;2022-11-20T01:00:14;15.00;;;8.40;;
3563;SDS011;1796;52.388;13.096;2022-11-20T01:02:41;14.50;;;9.00;;
3563;SDS011;1796;52.388;13.096;2022-11-20T01:05:08;15.20;;;8.47;;
3563;SDS011;1796;52.388;13.096;2022-11-20T01:07:35;13.80;;;8.73;;
3563;SDS011;1796;52.388;13.096;2022-11-20T01:10:02;12.97;;;8.43;;
3563;SDS011;1796;52.388;13.096;2022-11-20T01:12:29;13.80;;;8.97;;
3563;SDS011;1796;52.388;13.096;2022-11-20T01:14:58;15.67;;;9.17;;
3563;SDS011;1796;52.388;13.096;2022-11-20T01:17:24;12.37;;;7.77;;
3563;SDS011;1796;52.388;13.096;2022-11-20T01:19:51;14.47;;;7.40;;
3563;SDS011;1796;52.388;13.096;2022-11-20T01:22:18;11.73;;;8.50;;
3563;SDS011;1796;52.388;13.096;2022-11-20T01:24:45;11.80;;;8.20;;
3563;SDS011;1796;52.388;13.096;2022-11-20T01:27:12;12.80;;;8.07;;
3563;SDS011;1796;52.388;13.096;2022-11-20T01:29:39;12.10;;;7.73;;
3563;SDS011;1796;52.388;13.096;2022-11-20T01:32:07;12.93;;;8.60;;
3563;SDS011;1796;52.388;13.096;2022-11-20T01:34:34;9.73;;;7.10;;
3563;SDS011;1796;52.388;13.096;2022-11-20T01:37:01;11.17;;;8.00;;
3563;SDS011;1796;52.388;13.096;2022-11-20T01:39:28;12.67;;;8.00;;
3563;SDS011;1796;52.388;13.096;2022-11-20T01:41:55;10.70;;;8.70;;
3563;SDS011;1796;52.388;13.096;2022-11-20T01:44:45;11.60;;;8.30;;
3563;SDS011;1796;52.388;13.096;2022-11-20T01:47:17;12.90;;;8.80;;
3563;SDS011;1796;52.388;13.096;2022-11-20T01:49:50;12.60;;;7.97;;
3563;SDS011;1796;52.388;13.096;2022-11-20T01:52:22;14.07;;;8.23;;
3563;SDS011;1796;52.388;13.096;2022-11-20T01:54:53;12.40;;;8.27;;
3563;SDS011;1796;52.388;13.096;2022-11-20T01:57:24;11.03;;;7.07;;
3563;SDS011;1796;52.388;13.096;2022-11-20T01:59:55;14.70;;;9.10;;
3563;SDS011;1796;52.388;13.096;2022-11-20T02:02:27;14.00;;;8.87;;
3563;SDS011;1796;52.388;13.096;2022-11-20T02:04:55;10.03;;;8.50;;
3563;SDS011;1796;52.388;13.096;2022-11-20T02:07:26;12.10;;;9.07;;
3563;SDS011;1796;52.388;13.096;2022-11-20T02:09:54;13.60;;;8.80;;
3563;SDS011;1796;52.388;13.096;2022-11-20T02:12:21;12.90;;;8.00;;
3563;SDS011;1796;52.388;13.096;2022-11-20T02:15:06;12.97;;;8.97;;
3563;SDS011;1796;52.388;13.096;2022-11-20T02:17:34;14.77;;;8.87;;
3563;SDS011;1796;52.388;13.096;2022-11-20T02:20:01;18.37;;;9.47;;
3563;SDS011;1796;52.388;13.096;2022-11-20T02:22:30;12.17;;;9.07;;
3563;SDS011;1796;52.388;13.096;2022-11-20T02:25:03;15.60;;;9.60;;
3563;SDS011;1796;52.388;13.096;2022-11-20T02:27:31;17.40;;;8.80;;
3563;SDS011;1796;52.388;13.096;2022-11-20T02:29:59;13.20;;;8.00;;
3563;SDS011;1796;52.388;13.096;2022-11-20T02:32:29;14.77;;;8.63;;
3563;SDS011;1796;52.388;13.096;2022-11-20T02:34:57;15.70;;;9.20;;
3563;SDS011;1796;52.388;13.096;2022-11-20T02:37:32;11.67;;;7.40;;
3563;SDS011;1796;52.388;13.096;2022-11-20T02:40:04;13.70;;;9.53;;
3563;SDS011;1796;52.388;13.096;2022-11-20T02:42:31;19.60;;;10.43;;
3563;SDS011;1796;52.388;13.096;2022-11-20T02:44:58;16.63;;;10.50;;
3563;SDS011;1796;52.388;13.096;2022-11-20T02:47:25;15.97;;;10.33;;
3563;SDS011;1796;52.388;13.096;2022-11-20T02:49:52;17.20;;;9.97;;
3563;SDS011;1796;52.388;13.096;2022-11-20T02:52:19;13.30;;;9.40;;
3563;SDS011;1796;52.388;13.096;2022-11-20T02:54:45;13.00;;;9.53;;
3563;SDS011;1796;52.388;13.096;2022-11-20T02:57:14;13.60;;;9.77;;
3563;SDS011;1796;52.388;13.096;2022-11-20T02:59:40;16.03;;;10.50;;
3563;SDS011;1796;52.388;13.096;2022-11-20T03:02:07;15.90;;;9.53;;
3563;SDS011;1796;52.388;13.096;2022-11-20T03:04:34;14.40;;;9.70;;
3563;SDS011;1796;52.388;13.096;2022-11-20T03:07:01;16.93;;;9.33;;
3563;SDS011;1796;52.388;13.096;2022-11-20T03:09:28;14.30;;;9.70;;
3563;SDS011;1796;52.388;13.096;2022-11-20T03:11:55;15.80;;;9.00;;
3563;SDS011;1796;52.388;13.096;2022-11-20T03:14:23;15.60;;;9.50;;
3563;SDS011;1796;52.388;13.096;2022-11-20T03:16:50;15.67;;;8.93;;
3563;SDS011;1796;52.388;13.096;2022-11-20T03:19:17;15.07;;;10.20;;
3563;SDS011;1796;52.388;13.096;2022-11-20T03:21:44;18.03;;;10.27;;
3563;SDS011;1796;52.388;13.096;2022-11-20T03:24:12;13.10;;;9.23;;
3563;SDS011;1796;52.388;13.096;2022-11-20T03:26:39;15.10;;;9.53;;
3563;SDS011;1796;52.388;13.096;2022-11-20T03:29:06;16.10;;;10.40;;
3563;SDS011;1796;52.388;13.096;2022-11-20T03:31:35;16.70;;;10.33;;
3563;SDS011;1796;52.388;13.096;2022-11-20T03:34:05;16.93;;;9.90;;
3563;SDS011;1796;52.388;13.096;2022-11-20T03:36:32;16.13;;;9.17;;
3563;SDS011;1796;52.388;13.096;2022-11-20T03:38:59;14.83;;;9.33;;
3563;SDS011;1796;52.388;13.096;2022-11-20T03:41:28;20.27;;;10.47;;
3563;SDS011;1796;52.388;13.096;2022-11-20T03:43:57;13.67;;;9.70;;
3563;SDS011;1796;52.388;13.096;2022-11-20T03:46:25;21.63;;;9.80;;
3563;SDS011;1796;52.388;13.096;2022-11-20T03:48:53;18.17;;;10.33;;
3563;SDS011;1796;52.388;13.096;2022-11-20T03:51:21;18.63;;;9.90;;
3563;SDS011;1796;52.388;13.096;2022-11-20T03:53:50;16.80;;;10.20;;
3563;SDS011;1796;52.388;13.096;2022-11-20T03:56:18;14.90;;;9.63;;
3563;SDS011;1796;52.388;13.096;2022-11-20T03:58:48;15.17;;;9.80;;
3563;SDS011;1796;52.388;13.096;2022-11-20T04:01:16;16.43;;;9.80;;
3563;SDS011;1796;52.388;13.096;2022-11-20T04:03:45;16.83;;;9.87;;
3563;SDS011;1796;52.388;13.096;2022-11-20T04:06:14;18.70;;;11.40;;
3563;SDS011;1796;52.388;13.096;2022-11-20T04:08:43;20.83;;;10.33;;
3563;SDS011;1796;52.388;13.096;2022-11-20T04:11:10;18.90;;;10.63;;
3563;SDS011;1796;52.388;13.096;2022-11-20T04:13:38;18.73;;;11.60;;
3563;SDS011;1796;52.388;13.096;2022-11-20T04:16:06;24.70;;;11.07;;
3563;SDS011;1796;52.388;13.096;2022-11-20T04:18:34;20.20;;;11.37;;
3563;SDS011;1796;52.388;13.096;2022-11-20T04:21:02;16.10;;;9.97;;
3563;SDS011;1796;52.388;13.096;2022-11-20T04:23:31;17.90;;;9.67;;
3563;SDS011;1796;52.388;13.096;2022-11-20T04:26:00;18.07;;;10.43;;
3563;SDS011;1796;52.388;13.096;2022-11-20T04:28:28;16.87;;;10.40;;
3563;SDS011;1796;52.388;13.096;2022-11-20T04:31:00;18.07;;;10.77;;
3563;SDS011;1796;52.388;13.096;2022-11-20T04:33:28;18.77;;;10.47;;
3563;SDS011;1796;52.388;13.096;2022-11-20T04:35:55;21.10;;;11.63;;
3563;SDS011;1796;52.388;13.096;2022-11-20T04:38:27;18.30;;;10.00;;
3563;SDS011;1796;52.388;13.096;2022-11-20T04:40:57;18.57;;;11.17;;
3563;SDS011;1796;52.388;13.096;2022-11-20T04:43:24;14.53;;;10.13;;
3563;SDS011;1796;52.388;13.096;2022-11-20T04:45:51;15.43;;;9.47;;
3563;SDS011;1796;52.388;13.096;2022-11-20T04:48:18;15.67;;;9.57;;
3563;SDS011;1796;52.388;13.096;2022-11-20T04:50:45;15.33;;;9.70;;
3563;SDS011;1796;52.388;13.096;2022-11-20T04:53:12;16.40;;;9.90;;
3563;SDS011;1796;52.388;13.096;2022-11-20T04:55:39;17.60;;;9.13;;
3563;SDS011;1796;52.388;13.096;2022-11-20T04:58:07;15.20;;;9.03;;
3563;SDS011;1796;52.388;13.096;2022-11-20T05:00:34;17.10;;;9.33;;
3563;SDS011;1796;52.388;13.096;2022-11-20T05:03:01;14.47;;;9.47;;
3563;SDS011;1796;52.388;13.096;2022-11-20T05:05:28;15.13;;;9.17;;
3563;SDS011;1796;52.388;13.096;2022-11-20T05:07:55;17.20;;;9.73;;
3563;SDS011;1796;52.388;13.096;2022-11-20T05:10:23;15.30;;;9.47;;
3563;SDS011;1796;52.388;13.096;2022-11-20T05:12:50;19.83;;;10.47;;
3563;SDS011;1796;52.388;13.096;2022-11-20T05:15:18;16.80;;;9.93;;
3563;SDS011;1796;52.388;13.096;2022-11-20T05:17:46;14.93;;;9.80;;
3563;SDS011;1796;52.388;13.096;2022-11-20T05:20:14;16.17;;;10.00;;
3563;SDS011;1796;52.388;13.096;2022-11-20T05:22:41;19.33;;;11.10;;
3563;SDS011;1796;52.388;13.096;2022-11-20T05:25:08;16.07;;;10.10;;
3563;SDS011;1796;52.388;13.096;2022-11-20T05:27:35;23.83;;;10.60;;
3563;SDS011;1796;52.388;13.096;2022-11-20T05:30:02;14.40;;;10.03;;
3563;SDS011;1796;52.388;13.096;2022-11-20T05:32:30;16.10;;;10.47;;
3563;SDS011;1796;52.388;13.096;2022-11-20T05:34:57;16.87;;;10.00;;
3563;SDS011;1796;52.388;13.096;2022-11-20T05:37:24;16.07;;;12.17;;
3563;SDS011;1796;52.388;13.096;2022-11-20T05:39:51;15.70;;;11.40;;
3563;SDS011;1796;52.388;13.096;2022-11-20T05:42:17;17.53;;;10.37;;
3563;SDS011;1796;52.388;13.096;2022-11-20T05:44:56;17.50;;;10.40;;
3563;SDS011;1796;52.388;13.096;2022-11-20T05:47:24;15.03;;;8.90;;
3563;SDS011;1796;52.388;13.096;2022-11-20T05:49:52;15.80;;;9.60;;
3563;SDS011;1796;52.388;13.096;2022-11-20T05:52:19;13.00;;;9.40;;
3563;SDS011;1796;52.388;13.096;2022-11-20T05:54:46;18.00;;;10.60;;
3563;SDS011;1796;52.388;13.096;2022-11-20T05:57:13;13.53;;;9.53;;
3563;SDS011;1796;52.388;13.096;2022-11-20T05:59:41;17.53;;;10.10;;
3563;SDS011;1796;52.388;13.096;2022-11-20T06:02:07;15.33;;;10.57;;
3563;SDS011;1796;52.388;13.096;2022-11-20T06:04:34;20.47;;;9.50;;
3563;SDS011;1796;52.388;13.096;2022-11-20T06:07:04;16.40;;;10.63;;
3563;SDS011;1796;52.388;13.096;2022-11-20T06:09:31;18.80;;;10.87;;
3563;SDS011;1796;52.388;13.096;2022-11-20T06:11:58;16.80;;;10.70;;
3563;SDS011;1796;52.388;13.096;2022-11-20T06:14:25;15.17;;;10.13;;
3563;SDS011;1796;52.388;13.096;2022-11-20T06:16:52;15.60;;;9.90;;
3563;SDS011;1796;52.388;13.096;2022-11-20T06:19:19;20.53;;;10.47;;
3563;SDS011;1796;52.388;13.096;2022-11-20T06:21:47;17.43;;;11.77;;
3563;SDS011;1796;52.388;13.096;2022-11-20T06:24:16;18.37;;;10.73;;
3563;SDS011;1796;52.388;13.096;2022-11-20T06:26:43;13.93;;;9.30;;
3563;SDS011;1796;52.388;13.096;2022-11-20T06:29:11;16.53;;;9.40;;
3563;SDS011;1796;52.388;13.096;2022-11-20T06:31:37;19.37;;;10.50;;
3563;SDS011;1796;52.388;13.096;2022-11-20T06:34:04;19.07;;;12.53;;
3563;SDS011;1796;52.388;13.096;2022-11-20T06:36:32;14.90;;;9.60;;
3563;SDS011;1796;52.388;13.096;2022-11-20T06:38:59;14.90;;;10.13;;
3563;SDS011;1796;52.388;13.096;2022-11-20T06:41:27;19.37;;;10.07;;
3563;SDS011;1796;52.388;13.096;2022-11-20T06:43:54;15.80;;;10.73;;
3563;SDS011;1796;52.388;13.096;2022-11-20T06:46:21;15.17;;;9.83;;
3563;SDS011;1796;52.388;13.096;2022-11-20T06:48:48;15.57;;;10.40;;
3563;SDS011;1796;52.388;13.096;2022-11-20T06:51:16;15.17;;;10.07;;
3563;SDS011;1796;52.388;13.096;2022-11-20T06:53:43;15.20;;;10.10;;
3563;SDS011;1796;52.388;13.096;2022-11-20T06:56:10;24.00;;;10.87;;
3563;SDS011;1796;52.388;13.096;2022-11-20T06:58:38;15.10;;;9.77;;
3563;SDS011;1796;52.388;13.096;2022-11-20T07:01:06;16.20;;;10.43;;
3563;SDS011;1796;52.388;13.096;2022-11-20T07:03:35;15.10;;;10.60;;
3563;SDS011;1796;52.388;13.096;2022-11-20T07:06:02;18.23;;;9.80;;
3563;SDS011;1796;52.388;13.096;2022-11-20T07:08:30;16.43;;;10.10;;
3563;SDS011;1796;52.388;13.096;2022-11-20T07:10:57;16.60;;;10.60;;
3563;SDS011;1796;52.388;13.096;2022-11-20T07:13:25;15.33;;;10.20;;
3563;SDS011;1796;52.388;13.096;2022-11-20T07:15:54;16.37;;;9.90;;
3563;SDS011;1796;52.388;13.096;2022-11-20T07:18:21;14.60;;;9.27;;
3563;SDS011;1796;52.388;13.096;2022-11-20T07:20:47;15.87;;;10.13;;
3563;SDS011;1796;52.388;13.096;2022-11-20T07:23:14;14.80;;;8.97;;
3563;SDS011;1796;52.388;13.096;2022-11-20T07:25:41;15.17;;;9.80;;
3563;SDS011;1796;52.388;13.096;2022-11-20T07:28:08;14.30;;;9.80;;
3563;SDS011;1796;52.388;13.096;2022-11-20T07:30:35;18.57;;;9.80;;
3563;SDS011;1796;52.388;13.096;2022-11-20T07:33:04;19.10;;;10.47;;
3563;SDS011;1796;52.388;13.096;2022-11-20T07:35:31;14.13;;;9.30;;
3563;SDS011;1796;52.388;13.096;2022-11-20T07:37:58;14.03;;;10.07;;
3563;SDS011;1796;52.388;13.096;2022-11-20T07:40:25;15.07;;;10.53;;
3563;SDS011;1796;52.388;13.096;2022-11-20T07:42:52;13.10;;;9.40;;
3563;SDS011;1796;52.388;13.096;2022-11-20T07:45:21;13.00;;;9.40;;
3563;SDS011;1796;52.388;13.096;2022-11-20T07:47:49;15.10;;;9.20;;
3563;SDS011;1796;52.388;13.096;2022-11-20T07:50:18;15.77;;;10.10;;
3563;SDS011;1796;52.388;13.096;2022-11-20T07:52:45;14.93;;;10.30;;
3563;SDS011;1796;52.388;13.096;2022-11-20T07:55:12;14.30;;;9.20;;
3563;SDS011;1796;52.388;13.096;2022-11-20T07:57:39;18.50;;;9.53;;
3563;SDS011;1796;52.388;13.096;2022-11-20T08:00:07;15.10;;;9.43;;
3563;SDS011;1796;52.388;13.096;2022-11-20T08:02:36;16.83;;;9.87;;
3563;SDS011;1796;52.388;13.096;2022-11-20T08:05:04;18.80;;;10.57;;
3563;SDS011;1796;52.388;13.096;2022-11-20T08:07:36;19.20;;;11.10;;
3563;SDS011;1796;52.388;13.096;2022-11-20T08:10:04;18.67;;;10.60;;
3563;SDS011;1796;52.388;13.096;2022-11-20T08:12:31;18.50;;;10.53;;
3563;SDS011;1796;52.388;13.096;2022-11-20T08:15:15;24.07;;;10.80;;
3563;SDS011;1796;52.388;13.096;2022-11-20T08:17:42;15.77;;;10.10;;
3563;SDS011;1796;52.388;13.096;2022-11-20T08:20:09;19.60;;;10.80;;
3563;SDS011;1796;52.388;13.096;2022-11-20T08:22:38;18.13;;;10.10;;
3563;SDS011;1796;52.388;13.096;2022-11-20T08:25:05;14.47;;;10.07;;
3563;SDS011;1796;52.388;13.096;2022-11-20T08:27:32;19.70;;;11.07;;
3563;SDS011;1796;52.388;13.096;2022-11-20T08:29:59;16.03;;;9.07;;
3563;SDS011;1796;52.388;13.096;2022-11-20T08:32:26;20.23;;;10.77;;
3563;SDS011;1796;52.388;13.096;2022-11-20T08:34:52;16.30;;;9.87;;
3563;SDS011;1796;52.388;13.096;2022-11-20T08:37:20;16.50;;;10.00;;
3563;SDS011;1796;52.388;13.096;2022-11-20T08:39:48;12.40;;;8.03;;
3563;SDS011;1796;52.388;13.096;2022-11-20T08:42:15;18.57;;;10.90;;
3563;SDS011;1796;52.388;13.096;2022-11-20T08:44:42;18.50;;;9.00;;
3563;SDS011;1796;52.388;13.096;2022-11-20T08:47:09;14.13;;;9.73;;
3563;SDS011;1796;52.388;13.096;2022-11-20T08:49:36;13.67;;;9.93;;
3563;SDS011;1796;52.388;13.096;2022-11-20T08:52:02;16.63;;;9.60;;
3563;SDS011;1796;52.388;13.096;2022-11-20T08:54:30;16.23;;;9.70;;
3563;SDS011;1796;52.388;13.096;2022-11-20T08:56:58;16.33;;;9.57;;
3563;SDS011;1796;52.388;13.096;2022-11-20T08:59:25;16.37;;;9.20;;
3563;SDS011;1796;52.388;13.096;2022-11-20T09:01:52;14.27;;;8.63;;
3563;SDS011;1796;52.388;13.096;2022-11-20T09:04:19;15.33;;;9.53;;
3563;SDS011;1796;52.388;13.096;2022-11-20T09:06:46;14.73;;;9.63;;
3563;SDS011;1796;52.388;13.096;2022-11-20T09:09:15;15.87;;;9.47;;
3563;SDS011;1796;52.388;13.096;2022-11-20T09:11:42;15.43;;;9.70;;
3563;SDS011;1796;52.388;13.096;2022-11-20T09:14:10;15.20;;;11.20;;
3563;SDS011;1796;52.388;13.096;2022-11-20T09:16:37;11.43;;;8.53;;
3563;SDS011;1796;52.388;13.096;2022-11-20T09:19:04;16.23;;;9.43;;
3563;SDS011;1796;52.388;13.096;2022-11-20T09:21:31;12.83;;;8.87;;
3563;SDS011;1796;52.388;13.096;2022-11-20T09:23:58;14.40;;;9.30;;
3563;SDS011;1796;52.388;13.096;2022-11-20T09:26:25;14.67;;;8.77;;
3563;SDS011;1796;52.388;13.096;2022-11-20T09:28:51;12.93;;;9.40;;
3563;SDS011;1796;52.388;13.096;2022-11-20T09:31:21;9.80;;;7.83;;
3563;SDS011;1796;52.388;13.096;2022-11-20T09:33:50;12.87;;;9.10;;
3563;SDS011;1796;52.388;13.096;2022-11-20T09:36:17;19.03;;;9.77;;
3563;SDS011;1796;52.388;13.096;2022-11-20T09:38:44;11.73;;;8.90;;
3563;SDS011;1796;52.388;13.096;2022-11-20T09:41:17;44.73;;;25.20;;
3563;SDS011;1796;52.388;13.096;2022-11-20T09:44:17;28.83;;;16.37;;
3563;SDS011;1796;52.388;13.096;2022-11-20T09:46:59;39.00;;;20.70;;
3563;SDS011;1796;52.388;13.096;2022-11-20T09:49:32;44.30;;;24.80;;
3563;SDS011;1796;52.388;13.096;2022-11-20T09:52:16;25.27;;;14.83;;
3563;SDS011;1796;52.388;13.096;2022-11-20T09:54:52;27.40;;;15.10;;
3563;SDS011;1796;52.388;13.096;2022-11-20T09:57:21;26.67;;;15.80;;
3563;SDS011;1796;52.388;13.096;2022-11-20T09:59:53;21.57;;;12.37;;
3563;SDS011;1796;52.388;13.096;2022-11-20T10:02:28;15.40;;;10.90;;
3563;SDS011;1796;52.388;13.096;2022-11-20T10:04:58;32.70;;;17.17;;
3563;SDS011;1796;52.388;13.096;2022-11-20T10:07:29;23.53;;;13.43;;
3563;SDS011;1796;52.388;13.096;2022-11-20T10:10:02;13.87;;;9.57;;
3563;SDS011;1796;52.388;13.096;2022-11-20T10:12:33;32.93;;;20.27;;
3563;SDS011;1796;52.388;13.096;2022-11-20T10:15:18;21.70;;;13.30;;
3563;SDS011;1796;52.388;13.096;2022-11-20T10:17:58;16.30;;;11.37;;
3563;SDS011;1796;52.388;13.096;2022-11-20T10:20:35;12.67;;;9.30;;
3563;SDS011;1796;52.388;13.096;2022-11-20T10:23:17;14.60;;;10.37;;
3563;SDS011;1796;52.388;13.096;2022-11-20T10:26:02;17.97;;;10.60;;
3563;SDS011;1796;52.388;13.096;2022-11-20T10:28:34;12.70;;;9.40;;
3563;SDS011;1796;52.388;13.096;2022-11-20T10:31:14;36.40;;;20.23;;
3563;SDS011;1796;52.388;13.096;2022-11-20T10:33:52;39.00;;;22.40;;
3563;SDS011;1796;52.388;13.096;2022-11-20T10:36:22;16.80;;;10.20;;
3563;SDS011;1796;52.388;13.096;2022-11-20T10:38:54;18.37;;;12.00;;
3563;SDS011;1796;52.388;13.096;2022-11-20T10:41:26;18.27;;;11.63;;
3563;SDS011;1796;52.388;13.096;2022-11-20T10:43:59;32.83;;;17.87;;
3563;SDS011;1796;52.388;13.096;2022-11-20T10:46:33;35.50;;;13.37;;
3563;SDS011;1796;52.388;13.096;2022-11-20T10:49:09;14.63;;;9.53;;
3563;SDS011;1796;52.388;13.096;2022-11-20T10:51:40;22.80;;;12.20;;
3563;SDS011;1796;52.388;13.096;2022-11-20T10:54:22;18.33;;;11.10;;
3563;SDS011;1796;52.388;13.096;2022-11-20T10:56:58;22.17;;;12.43;;
3563;SDS011;1796;52.388;13.096;2022-11-20T10:59:43;37.90;;;19.77;;
3563;SDS011;1796;52.388;13.096;2022-11-20T11:02:17;27.00;;;9.77;;
3563;SDS011;1796;52.388;13.096;2022-11-20T11:04:48;29.10;;;12.10;;
3563;SDS011;1796;52.388;13.096;2022-11-20T11:07:17;27.43;;;12.50;;
3563;SDS011;1796;52.388;13.096;2022-11-20T11:09:48;45.40;;;17.27;;
3563;SDS011;1796;52.388;13.096;2022-11-20T11:12:16;25.53;;;10.90;;
3563;SDS011;1796;52.388;13.096;2022-11-20T11:14:44;19.70;;;10.57;;
3563;SDS011;1796;52.388;13.096;2022-11-20T11:17:20;32.23;;;11.63;;
3563;SDS011;1796;52.388;13.096;2022-11-20T11:20:01;46.57;;;15.30;;
3563;SDS011;1796;52.388;13.096;2022-11-20T11:22:31;31.07;;;12.57;;
3563;SDS011;1796;52.388;13.096;2022-11-20T11:24:59;92.77;;;26.60;;
3563;SDS011;1796;52.388;13.096;2022-11-20T11:27:27;27.97;;;11.80;;
3563;SDS011;1796;52.388;13.096;2022-11-20T11:30:11;42.27;;;15.80;;
3563;SDS011;1796;52.388;13.096;2022-11-20T11:32:39;110.83;;;31.10;;
3563;SDS011;1796;52.388;13.096;2022-11-20T11:35:18;104.87;;;32.57;;
3563;SDS011;1796;52.388;13.096;2022-11-20T11:37:50;33.97;;;13.20;;
3563;SDS011;1796;52.388;13.096;2022-11-20T11:40:20;34.20;;;13.80;;
3563;SDS011;1796;52.388;13.096;2022-11-20T11:42:50;32.40;;;13.63;;
3563;SDS011;1796;52.388;13.096;2022-11-20T11:45:22;13.20;;;8.00;;
3563;SDS011;1796;52.388;13.096;2022-11-20T11:47:49;29.03;;;13.83;;
3563;SDS011;1796;52.388;13.096;2022-11-20T11:50:20;70.13;;;25.90;;
3563;SDS011;1796;52.388;13.096;2022-11-20T11:52:56;37.53;;;16.10;;
3563;SDS011;1796;52.388;13.096;2022-11-20T11:55:31;27.57;;;11.37;;
3563;SDS011;1796;52.388;13.096;2022-11-20T11:58:19;14.83;;;9.40;;
3563;SDS011;1796;52.388;13.096;2022-11-20T12:00:56;24.13;;;11.83;;
3563;SDS011;1796;52.388;13.096;2022-11-20T12:03:31;16.20;;;9.10;;
3563;SDS011;1796;52.388;13.096;2022-11-20T12:06:04;6.17;;;5.10;;
3563;SDS011;1796;52.388;13.096;2022-11-20T12:08:38;14.07;;;7.80;;
3563;SDS011;1796;52.388;13.096;2022-11-20T12:11:11;26.20;;;12.47;;
3563;SDS011;1796;52.388;13.096;2022-11-20T12:13:44;19.90;;;8.10;;
3563;SDS011;1796;52.388;13.096;2022-11-20T12:16:18;5.83;;;5.30;;
3563;SDS011;1796;52.388;13.096;2022-11-20T12:18:47;20.83;;;11.37;;
3563;SDS011;1796;52.388;13.096;2022-11-20T12:21:21;16.07;;;7.77;;
3563;SDS011;1796;52.388;13.096;2022-11-20T12:23:58;12.17;;;7.37;;
3563;SDS011;1796;52.388;13.096;2022-11-20T12:26:45;13.20;;;8.40;;
3563;SDS011;1796;52.388;13.096;2022-11-20T12:29:23;8.80;;;6.47;;
3563;SDS011;1796;52.388;13.096;2022-11-20T12:32:04;15.03;;;7.13;;
3563;SDS011;1796;52.388;13.096;2022-11-20T12:34:47;18.47;;;9.73;;
3563;SDS011;1796;52.388;13.096;2022-11-20T12:37:33;18.13;;;7.97;;
3563;SDS011;1796;52.388;13.096;2022-11-20T12:40:13;18.03;;;10.50;;
3563;SDS011;1796;52.388;13.096;2022-11-20T12:42:55;14.53;;;8.63;;
3563;SDS011;1796;52.388;13.096;2022-11-20T12:45:54;17.67;;;7.10;;
3563;SDS011;1796;52.388;13.096;2022-11-20T12:48:41;10.47;;;7.30;;
3563;SDS011;1796;52.388;13.096;2022-11-20T12:51:18;18.00;;;9.00;;
3563;SDS011;1796;52.388;13.096;2022-11-20T12:54:09;10.23;;;6.80;;
3563;SDS011;1796;52.388;13.096;2022-11-20T12:56:49;8.67;;;7.20;;
3563;SDS011;1796;52.388;13.096;2022-11-20T12:59:27;11.03;;;7.07;;
3563;SDS011;1796;52.388;13.096;2022-11-20T13:02:09;10.00;;;6.83;;
3563;SDS011;1796;52.388;13.096;2022-11-20T13:07:45;8.30;;;6.60;;
3563;SDS011;1796;52.388;13.096;2022-11-20T13:10:18;9.30;;;6.00;;
3563;SDS011;1796;52.388;13.096;2022-11-20T13:12:49;11.03;;;6.23;;
3563;SDS011;1796;52.388;13.096;2022-11-20T13:15:23;5.13;;;4.63;;
3563;SDS011;1796;52.388;13.096;2022-11-20T13:18:00;5.50;;;5.00;;
3563;SDS011;1796;52.388;13.096;2022-11-20T13:20:29;6.33;;;5.30;;
3563;SDS011;1796;52.388;13.096;2022-11-20T13:22:57;9.97;;;5.87;;
3563;SDS011;1796;52.388;13.096;2022-11-20T13:25:26;6.30;;;5.10;;
3563;SDS011;1796;52.388;13.096;2022-11-20T13:27:55;9.67;;;5.57;;
3563;SDS011;1796;52.388;13.096;2022-11-20T13:30:24;9.20;;;5.90;;
3563;SDS011;1796;52.388;13.096;2022-11-20T13:32:52;9.53;;;5.10;;
3563;SDS011;1796;52.388;13.096;2022-11-20T13:35:25;7.07;;;5.87;;
3563;SDS011;1796;52.388;13.096;2022-11-20T13:40:51;9.13;;;5.70;;
3563;SDS011;1796;52.388;13.096;2022-11-20T13:43:21;7.73;;;5.43;;
3563;SDS011;1796;52.388;13.096;2022-11-20T13:45:56;6.43;;;5.03;;
3563;SDS011;1796;52.388;13.096;2022-11-20T13:48:25;7.83;;;5.67;;
3563;SDS011;1796;52.388;13.096;2022-11-20T13:50:59;9.07;;;6.07;;
3563;SDS011;1796;52.388;13.096;2022-11-20T13:54:00;8.10;;;5.93;;
3563;SDS011;1796;52.388;13.096;2022-11-20T13:56:50;15.83;;;8.20;;
3563;SDS011;1796;52.388;13.096;2022-11-20T13:59:31;8.50;;;6.60;;
3563;SDS011;1796;52.388;13.096;2022-11-20T14:02:10;10.37;;;6.83;;
3563;SDS011;1796;52.388;13.096;2022-11-20T14:04:41;9.20;;;7.03;;
3563;SDS011;1796;52.388;13.096;2022-11-20T14:07:11;8.37;;;6.93;;
3563;SDS011;1796;52.388;13.096;2022-11-20T14:09:39;10.97;;;7.03;;
3563;SDS011;1796;52.388;13.096;2022-11-20T14:12:18;8.37;;;6.20;;
3563;SDS011;1796;52.388;13.096;2022-11-20T14:14:48;8.90;;;6.43;;
3563;SDS011;1796;52.388;13.096;2022-11-20T14:17:17;12.20;;;6.97;;
3563;SDS011;1796;52.388;13.096;2022-11-20T14:19:45;8.40;;;7.10;;
3563;SDS011;1796;52.388;13.096;2022-11-20T14:22:17;8.40;;;6.77;;
3563;SDS011;1796;52.388;13.096;2022-11-20T14:24:46;12.10;;;7.80;;
3563;SDS011;1796;52.388;13.096;2022-11-20T14:27:14;9.00;;;6.70;;
3563;SDS011;1796;52.388;13.096;2022-11-20T14:29:45;11.20;;;7.47;;
3563;SDS011;1796;52.388;13.096;2022-11-20T14:32:14;12.90;;;7.20;;
3563;SDS011;1796;52.388;13.096;2022-11-20T14:34:44;12.03;;;6.93;;
3563;SDS011;1796;52.388;13.096;2022-11-20T14:37:13;8.60;;;6.80;;
3563;SDS011;1796;52.388;13.096;2022-11-20T14:39:48;10.67;;;6.70;;
3563;SDS011;1796;52.388;13.096;2022-11-20T14:42:17;8.87;;;6.80;;
3563;SDS011;1796;52.388;13.096;2022-11-20T14:44:47;10.63;;;7.60;;
3563;SDS011;1796;52.388;13.096;2022-11-20T14:47:17;11.03;;;7.37;;
3563;SDS011;1796;52.388;13.096;2022-11-20T14:49:47;9.10;;;6.80;;
3563;SDS011;1796;52.388;13.096;2022-11-20T14:52:16;10.63;;;7.40;;
3563;SDS011;1796;52.388;13.096;2022-11-20T14:54:45;15.60;;;7.97;;
3563;SDS011;1796;52.388;13.096;2022-11-20T14:57:24;10.07;;;7.10;;
3563;SDS011;1796;52.388;13.096;2022-11-20T15:00:04;11.20;;;7.63;;
3563;SDS011;1796;52.388;13.096;2022-11-20T15:02:33;10.73;;;7.77;;
3563;SDS011;1796;52.388;13.096;2022-11-20T15:05:01;11.03;;;7.20;;
3563;SDS011;1796;52.388;13.096;2022-11-20T15:07:30;12.60;;;7.77;;